Time;durP1;ratioP1;P1;durP2;ratioP2;P2;SDS_P1;SDS_P2;PMS_P1;PMS_P2;Temp;Humidity;BMP_temperature;BMP_pressure;BME280_temperature;BME280_humidity;BME280_pressure;Samples;Min_cycle;Max_cycle;Signal;HPM_P1;HPM_P2
2024/04/02 05:41:23;;;;;;;1.88;1.05;;;;;;;;;;10591516;27;20401;-81
2024/04/02 05:46:24;;;;;;;;;;;;;;;;;;10608587;28;20486;-81
2024/04/02 05:51:25;;;;;;;2.10;1.00;;;;;;;;;;10596373;28;19975;-81
2024/04/02 05:56:26;;;;;;;5.00;1.75;;;;;;;;;;10606775;28;20249;-81
2024/04/02 06:01:27;;;;;;;2.30;1.27;;;;;;;;;;10611536;28;20034;-81
2024/04/02 06:06:29;;;;;;;3.63;1.20;;;;;;;;;;10617369;28;20080;-82
2024/04/02 06:11:30;;;;;;;3.08;1.30;;;;;;;;;;10592952;28;20081;-81
2024/04/02 06:16:31;;;;;;;;;;;;;;;;;;10594493;28;20520;-82
2024/04/02 06:21:32;;;;;;;3.83;1.52;;;;;;;;;;10591626;28;19904;-81
2024/04/02 06:26:33;;;;;;;;;;;;;;;;;;10592110;28;20445;-82
2024/04/02 06:31:34;;;;;;;4.20;1.50;;;;;;;;;;10590112;28;19937;-81
2024/04/02 06:36:35;;;;;;;;;;;;;;;;;;10590948;28;20027;-81
2024/04/02 06:41:36;;;;;;;2.45;1.17;;;;;;;;;;10598330;28;19900;-82
2024/04/02 06:46:37;;;;;;;;;;;;;;;;;;10597327;28;20491;-82
2024/04/02 06:51:38;;;;;;;3.80;1.70;;;;;;;;;;10565834;28;19911;-81
2024/04/02 06:56:39;;;;;;;2.75;1.70;;;;;;;;;;10560610;28;20028;-82
2024/04/02 07:01:40;;;;;;;;;;;;;;;;;;10561879;28;20048;-82
2024/04/02 07:06:42;;;;;;;1.60;0.77;;;;;;;;;;10559925;28;19912;-81
2024/04/02 07:11:43;;;;;;;4.07;1.02;;;;;;;;;;10564829;28;20028;-81
2024/04/02 07:16:44;;;;;;;2.80;1.30;;;;;;;;;;10566555;28;20091;-81
2024/04/02 07:21:45;;;;;;;;;;;;;;;;;;10576441;28;20034;-81
2024/04/02 07:26:46;;;;;;;3.72;1.90;;;;;;;;;;10559002;28;20363;-82
2024/04/02 07:31:47;;;;;;;6.75;2.97;;;;;;;;;;10569269;28;20027;-81
2024/04/02 08:34:22;;;;;;;4.45;1.70;;;;;;;;;;10516636;27;20421;-86
2024/04/02 11:16:04;;;;;;;4.05;2.00;;;;;;;;;;10634608;27;20056;-89
2024/04/02 11:50:29;;;;;;;4.28;1.40;;;;;;;;;;10544716;28;20039;-88
2024/04/02 12:59:02;;;;;;;2.28;0.90;;;;;;;;;;10647708;27;20031;-86
2024/04/02 13:16:21;;;;;;;3.60;1.20;;;;;;;;;;10511925;28;20028;-87
2024/04/02 13:38:58;;;;;;;4.25;2.45;;;;;;;;;;10595713;22;20059;-79
2024/04/02 13:43:59;;;;;;;5.38;1.90;;;;;;;;;;10591755;28;20032;-80
2024/04/02 13:49:00;;;;;;;;;;;;;;;;;;10550785;28;20143;-80
2024/04/02 13:54:01;;;;;;;4.18;1.75;;;;;;;;;;10540072;28;19903;-79
2024/04/02 13:59:02;;;;;;;3.83;1.02;;;;;;;;;;10547221;28;20107;-79
2024/04/02 14:04:03;;;;;;;;;;;;;;;;;;10572717;28;20054;-79
2024/04/02 14:09:04;;;;;;;4.75;1.98;;;;;;;;;;10551965;28;19908;-79
2024/04/02 14:14:05;;;;;;;8.95;5.07;;;;;;;;;;10546306;28;20514;-79
2024/04/02 14:19:07;;;;;;;5.50;1.70;;;;;;;;;;10545956;28;20064;-80
2024/04/02 14:24:08;;;;;;;3.65;1.77;;;;;;;;;;10548893;28;20495;-80
2024/04/02 14:29:09;;;;;;;6.30;1.88;;;;;;;;;;10550452;28;20062;-80
2024/04/02 14:34:10;;;;;;;;;;;;;;;;;;10546842;28;20028;-80
2024/04/02 14:39:11;;;;;;;2.83;1.15;;;;;;;;;;10542909;28;20363;-79
2024/04/02 14:44:12;;;;;;;;;;;;;;;;;;10545131;28;20047;-81
2024/04/02 14:49:13;;;;;;;3.28;1.35;;;;;;;;;;10542741;28;19934;-83
2024/04/02 14:54:14;;;;;;;;;;;;;;;;;;10562119;28;20049;-84
2024/04/02 14:59:15;;;;;;;5.22;2.45;;;;;;;;;;10563270;28;20357;-82
2024/04/02 15:04:16;;;;;;;;;;;;;;;;;;10545481;28;20123;-82
2024/04/02 15:09:17;;;;;;;4.60;1.35;;;;;;;;;;10530302;28;19984;-80
2024/04/02 15:14:18;;;;;;;4.78;1.63;;;;;;;;;;10544333;28;20032;-80
2024/04/02 15:19:19;;;;;;;5.38;2.38;;;;;;;;;;10549125;28;20086;-81
2024/04/02 15:24:25;;;;;;;4.25;1.65;;;;;;;;;;10542199;28;20071;-81
2024/04/02 15:29:27;;;;;;;3.42;1.70;;;;;;;;;;10542123;28;20054;-82
2024/04/02 15:34:28;;;;;;;4.15;1.75;;;;;;;;;;10543582;28;20031;-80
2024/04/02 15:39:29;;;;;;;6.13;1.90;;;;;;;;;;10560656;28;20084;-80
2024/04/02 15:44:30;;;;;;;5.63;1.77;;;;;;;;;;10543219;28;20403;-80
2024/04/02 15:49:32;;;;;;;6.30;1.85;;;;;;;;;;10544444;28;20028;-82
2024/04/02 15:54:33;;;;;;;4.05;1.80;;;;;;;;;;10544808;28;20074;-80
2024/04/02 15:59:34;;;;;;;3.45;1.65;;;;;;;;;;10543093;28;20036;-80
2024/04/02 16:04:35;;;;;;;;;;;;;;;;;;10553083;28;20040;-81
2024/04/02 16:09:37;;;;;;;3.03;1.40;;;;;;;;;;10555648;28;19912;-80
2024/04/02 16:14:38;;;;;;;6.22;1.38;;;;;;;;;;10545372;28;20494;-80
2024/04/02 16:19:39;;;;;;;3.50;1.50;;;;;;;;;;10536721;28;20039;-79
2024/04/02 16:24:41;;;;;;;5.07;1.98;;;;;;;;;;10550021;28;20172;-80
2024/04/02 16:29:42;;;;;;;4.25;1.50;;;;;;;;;;10531913;28;20032;-79
2024/04/02 16:34:43;;;;;;;3.15;1.33;;;;;;;;;;10552387;28;20137;-79
2024/04/02 16:39:44;;;;;;;4.88;1.58;;;;;;;;;;10552749;28;20039;-80
2024/04/02 16:44:45;;;;;;;4.82;1.67;;;;;;;;;;10530531;28;20040;-80
2024/04/02 16:49:46;;;;;;;6.03;1.67;;;;;;;;;;10548346;28;20111;-80
2024/04/02 16:54:47;;;;;;;3.95;1.88;;;;;;;;;;10548813;28;20090;-80
2024/04/02 16:59:48;;;;;;;5.40;2.10;;;;;;;;;;10551845;28;20112;-79
2024/04/02 17:04:49;;;;;;;2.63;1.30;;;;;;;;;;10550199;28;20535;-79
2024/04/02 17:09:50;;;;;;;3.63;1.40;;;;;;;;;;10546822;28;20039;-80
2024/04/02 17:14:52;;;;;;;3.42;1.50;;;;;;;;;;10547272;28;20040;-79
2024/04/02 17:19:58;;;;;;;2.95;1.35;;;;;;;;;;10546698;28;20032;-79
2024/04/02 17:24:59;;;;;;;3.00;1.40;;;;;;;;;;10547818;28;20036;-79
2024/04/02 17:30:01;;;;;;;3.95;1.55;;;;;;;;;;10546607;28;20058;-79
2024/04/02 17:35:02;;;;;;;3.47;1.33;;;;;;;;;;10548023;28;20054;-79
2024/04/02 17:40:03;;;;;;;4.43;1.30;;;;;;;;;;10528328;28;20032;-79
2024/04/02 17:45:05;;;;;;;4.18;1.40;;;;;;;;;;10546442;28;20146;-80
2024/04/02 17:50:06;;;;;;;3.47;1.50;;;;;;;;;;10546014;28;20088;-80
2024/04/02 17:55:07;;;;;;;3.95;1.45;;;;;;;;;;10536405;28;20038;-79
2024/04/02 18:00:08;;;;;;;5.90;1.70;;;;;;;;;;10537590;28;20039;-79
2024/04/02 18:05:09;;;;;;;5.05;1.90;;;;;;;;;;10550374;28;20095;-79
2024/04/02 18:10:10;;;;;;;7.13;1.70;;;;;;;;;;10547691;28;20032;-79
2024/04/02 18:15:11;;;;;;;;;;;;;;;;;;10544855;28;20116;-77
2024/04/02 18:20:12;;;;;;;4.50;2.00;;;;;;;;;;10526382;28;19908;-79
2024/04/02 18:25:16;;;;;;;4.60;1.70;;;;;;;;;;10598997;22;20465;-79
2024/04/02 18:30:17;;;;;;;4.68;1.70;;;;;;;;;;10550421;28;20036;-79
2024/04/02 18:35:18;;;;;;;;;;;;;;;;;;10548034;28;20503;-79
